createdAt,value
2023-03-31T00:00:36.500Z,100309.97
2023-03-31T00:03:10.154Z,100317.13
2023-03-31T00:05:37.979Z,100323.09
2023-03-31T00:08:05.196Z,100325.75
2023-03-31T00:10:34.006Z,100323.09
2023-03-31T00:13:01.895Z,100309.16
2023-03-31T00:15:29.546Z,100315.44
2023-03-31T00:18:00.569Z,100320.09
2023-03-31T00:20:28.132Z,100309.28
2023-03-31T00:22:54.815Z,100314.09
2023-03-31T00:25:21.602Z,100303.00
2023-03-31T00:27:50.377Z,100296.66
2023-03-31T00:30:17.157Z,100301.97
2023-03-31T00:32:44.125Z,100301.31
2023-03-31T00:35:11.517Z,100290.19
2023-03-31T00:37:58.042Z,100292.84
2023-03-31T00:40:25.012Z,100295.66
2023-03-31T00:42:52.076Z,100290.66
2023-03-31T00:45:23.538Z,100291.03
2023-03-31T00:48:06.283Z,100271.25
2023-03-31T00:50:40.737Z,100284.38
2023-03-31T00:53:12.060Z,100289.47
2023-03-31T00:55:45.130Z,100279.00
2023-03-31T00:58:20.258Z,100273.88
2023-03-31T01:00:52.977Z,100267.56
2023-03-31T01:03:22.853Z,100253.63
2023-03-31T01:05:55.600Z,100243.66
2023-03-31T01:08:26.041Z,100238.34
2023-03-31T01:11:00.493Z,100236.34
2023-03-31T01:13:28.868Z,100261.06
2023-03-31T01:15:55.665Z,100248.28
2023-03-31T01:18:23.265Z,100246.44
2023-03-31T01:20:52.658Z,100249.78
2023-03-31T01:23:39.010Z,100246.97
2023-03-31T01:26:32.188Z,100244.31
2023-03-31T01:29:08.955Z,100228.56
2023-03-31T01:32:13.181Z,100236.69
2023-03-31T01:34:58.175Z,100243.47
2023-03-31T01:37:37.752Z,100250.75
2023-03-31T01:40:23.811Z,100241.59
2023-03-31T01:43:07.094Z,100247.88
2023-03-31T01:45:55.033Z,100251.03
2023-03-31T01:48:30.136Z,100242.72
2023-03-31T01:51:00.389Z,100230.31
2023-03-31T01:53:49.083Z,100220.31
2023-03-31T01:56:23.757Z,100210.19
2023-03-31T01:58:54.868Z,100208.69
2023-03-31T02:01:26.387Z,100213.63
2023-03-31T02:04:17.522Z,100217.47
2023-03-31T02:06:53.054Z,100205.75
2023-03-31T02:09:25.177Z,100229.31
2023-03-31T02:11:53.925Z,100226.13
2023-03-31T02:14:24.684Z,100225.16
2023-03-31T02:16:58.631Z,100229.81
2023-03-31T02:19:32.530Z,100231.50
2023-03-31T02:22:03.611Z,100229.00
2023-03-31T02:24:31.973Z,100222.03
2023-03-31T02:27:05.796Z,100223.84
2023-03-31T02:29:33.066Z,100217.53
2023-03-31T02:32:22.185Z,100213.53
2023-03-31T02:34:49.665Z,100192.69
2023-03-31T02:37:17.076Z,100195.72
2023-03-31T02:39:48.916Z,100196.03
2023-03-31T02:42:16.128Z,100192.69
2023-03-31T02:44:43.138Z,100190.53
2023-03-31T02:47:14.008Z,100187.22
2023-03-31T02:49:54.093Z,100178.94
2023-03-31T02:52:29.917Z,100188.84
2023-03-31T02:55:18.354Z,100191.22
2023-03-31T02:58:12.515Z,100199.22
2023-03-31T03:01:18.592Z,100205.19
2023-03-31T03:04:17.058Z,100184.31
2023-03-31T03:07:03.660Z,100186.16
2023-03-31T03:09:52.111Z,100186.84
2023-03-31T03:12:41.582Z,100183.16
2023-03-31T03:15:28.443Z,100189.91
2023-03-31T03:17:56.496Z,100188.91
2023-03-31T03:20:23.801Z,100175.00
2023-03-31T03:22:51.012Z,100173.31
2023-03-31T03:25:18.276Z,100169.84
2023-03-31T03:27:45.166Z,100170.19
2023-03-31T03:30:13.641Z,100164.66
2023-03-31T03:32:41.696Z,100162.47
2023-03-31T03:35:09.015Z,100160.59
2023-03-31T03:37:36.136Z,100153.16
2023-03-31T03:40:06.038Z,100164.13
2023-03-31T03:42:34.409Z,100173.59
2023-03-31T03:45:01.722Z,100169.44
2023-03-31T03:47:29.057Z,100158.16
2023-03-31T03:49:56.520Z,100155.31
2023-03-31T03:52:23.377Z,100148.34
2023-03-31T03:54:50.658Z,100149.16
2023-03-31T03:57:17.538Z,100148.19
2023-03-31T03:59:44.330Z,100151.50
2023-03-31T04:02:11.319Z,100133.00
2023-03-31T04:04:38.236Z,100140.22
2023-03-31T04:07:05.578Z,100132.34
2023-03-31T04:09:32.508Z,100129.09
2023-03-31T04:11:59.296Z,100128.13
2023-03-31T04:14:26.194Z,100136.59
2023-03-31T04:16:56.225Z,100128.63
2023-03-31T04:19:26.036Z,100134.97
2023-03-31T04:21:59.130Z,100132.81
2023-03-31T04:24:33.307Z,100129.34
2023-03-31T04:27:00.894Z,100133.81
2023-03-31T04:29:27.682Z,100130.69
2023-03-31T04:31:58.907Z,100128.38
2023-03-31T04:34:34.760Z,100123.91
2023-03-31T04:37:02.975Z,100116.75
2023-03-31T04:39:30.946Z,100124.06
2023-03-31T04:42:00.962Z,100128.72
2023-03-31T04:44:28.262Z,100130.72
2023-03-31T04:46:56.223Z,100133.06
2023-03-31T04:49:23.167Z,100125.91
2023-03-31T04:51:50.324Z,100131.22
2023-03-31T04:54:17.299Z,100112.63
2023-03-31T04:56:44.187Z,100116.28
2023-03-31T04:59:11.235Z,100114.31
2023-03-31T05:01:38.088Z,100116.28
2023-03-31T05:04:05.723Z,100109.50
2023-03-31T05:06:33.398Z,100117.97
2023-03-31T05:09:00.308Z,100114.97
2023-03-31T05:11:27.563Z,100108.00
2023-03-31T05:13:54.881Z,100104.69
2023-03-31T05:16:21.719Z,100102.84
2023-03-31T05:18:48.542Z,100092.06
2023-03-31T05:21:18.100Z,100095.88
2023-03-31T05:23:45.994Z,100097.72
2023-03-31T05:26:13.834Z,100097.03
2023-03-31T05:28:41.558Z,100084.78
2023-03-31T05:31:09.443Z,100091.06
2023-03-31T05:33:40.456Z,100084.59
2023-03-31T05:36:10.663Z,100079.25
2023-03-31T05:38:38.101Z,100083.41
2023-03-31T05:41:05.058Z,100073.47
2023-03-31T05:43:31.938Z,100073.28
2023-03-31T05:45:58.927Z,100078.25
2023-03-31T05:48:25.769Z,100075.38
2023-03-31T05:50:57.208Z,100075.03
2023-03-31T05:53:24.178Z,100072.03
2023-03-31T05:55:57.582Z,100060.88
2023-03-31T05:58:24.516Z,100062.03
2023-03-31T06:00:53.998Z,100050.88
2023-03-31T06:03:20.905Z,100038.38
2023-03-31T06:05:49.206Z,100042.81
2023-03-31T06:08:15.979Z,100029.28
2023-03-31T06:10:42.942Z,100030.22
2023-03-31T06:13:09.810Z,100036.69
2023-03-31T06:15:36.740Z,100020.06
2023-03-31T06:18:03.729Z,100026.16
2023-03-31T06:20:30.651Z,100023.44
2023-03-31T06:22:57.812Z,100026.41
2023-03-31T06:25:24.669Z,100031.38
2023-03-31T06:27:51.369Z,100030.66
2023-03-31T06:30:18.182Z,100039.25
2023-03-31T06:32:45.314Z,100039.41
2023-03-31T06:35:12.293Z,100042.19
2023-03-31T06:37:39.042Z,100042.66
2023-03-31T06:40:06.440Z,100036.97
2023-03-31T06:42:33.194Z,100032.75
2023-03-31T06:45:00.162Z,100045.03
2023-03-31T06:47:27.012Z,100033.06
2023-03-31T06:49:53.728Z,100038.44
2023-03-31T06:52:20.652Z,100034.88
2023-03-31T06:54:47.347Z,100023.84
2023-03-31T06:57:14.222Z,100028.53
2023-03-31T06:59:41.092Z,100032.31
2023-03-31T07:02:07.852Z,100022.09
2023-03-31T07:04:34.585Z,100032.88
2023-03-31T07:07:01.888Z,100024.69
2023-03-31T07:09:28.787Z,100006.19
2023-03-31T07:11:56.819Z,100019.34
2023-03-31T07:14:23.937Z,100011.50
2023-03-31T07:16:51.033Z,100019.16
2023-03-31T07:19:18.218Z,100009.56
2023-03-31T07:21:45.815Z,100012.03
2023-03-31T07:24:12.587Z,100004.75
2023-03-31T07:26:39.308Z,100002.59
2023-03-31T07:29:06.634Z,100001.66
2023-03-31T07:31:38.051Z,99997.22
2023-03-31T07:34:04.916Z,99984.94
2023-03-31T07:36:31.905Z,99979.53
2023-03-31T07:38:58.935Z,99987.13
2023-03-31T07:41:26.420Z,99983.34
2023-03-31T07:43:53.329Z,99976.78
2023-03-31T07:46:26.154Z,99968.63
2023-03-31T07:48:54.714Z,99972.00
2023-03-31T07:51:24.313Z,99967.09
2023-03-31T07:53:52.653Z,99962.63
2023-03-31T07:56:22.266Z,99951.75
2023-03-31T07:58:49.444Z,99952.81
2023-03-31T08:01:21.757Z,99947.72
2023-03-31T08:03:48.959Z,99926.50
2023-03-31T08:06:20.016Z,99937.53
2023-03-31T08:08:46.857Z,99942.03
2023-03-31T08:11:14.119Z,99939.19
2023-03-31T08:13:41.033Z,99933.03
2023-03-31T08:16:08.414Z,99937.59
2023-03-31T08:18:35.523Z,99944.00
2023-03-31T08:21:02.248Z,99929.19
2023-03-31T08:23:29.004Z,99915.88
2023-03-31T08:25:55.783Z,99920.84
2023-03-31T08:28:22.865Z,99921.28
2023-03-31T08:30:49.690Z,99922.94
2023-03-31T08:33:16.442Z,99918.69
2023-03-31T08:35:43.574Z,99920.16
2023-03-31T08:38:10.459Z,99908.63
2023-03-31T08:40:41.243Z,99904.31
2023-03-31T08:43:16.771Z,99888.28
2023-03-31T08:45:47.869Z,99888.72
2023-03-31T08:48:14.821Z,99889.53
2023-03-31T08:50:48.953Z,99868.13
2023-03-31T08:53:28.915Z,99872.66
2023-03-31T08:55:58.192Z,99873.06
2023-03-31T08:58:41.347Z,99869.13
2023-03-31T09:01:13.993Z,99865.66
2023-03-31T09:04:11.026Z,99855.97
2023-03-31T09:07:07.191Z,99855.16
2023-03-31T09:10:07.154Z,99845.44
2023-03-31T09:13:07.374Z,99845.88
2023-03-31T09:15:55.953Z,99837.22
2023-03-31T09:18:38.482Z,99842.56
2023-03-31T09:21:25.538Z,99837.81
2023-03-31T09:24:12.142Z,99826.50
2023-03-31T09:26:45.104Z,99827.91
2023-03-31T09:29:46.582Z,99818.44
2023-03-31T09:32:22.125Z,99824.19
2023-03-31T09:34:57.304Z,99812.25
2023-03-31T09:37:30.963Z,99802.53
2023-03-31T09:40:01.341Z,99791.81
2023-03-31T09:42:28.236Z,99791.59
2023-03-31T09:44:56.165Z,99785.59
2023-03-31T09:47:32.751Z,99782.53
2023-03-31T09:49:59.645Z,99784.16
2023-03-31T09:52:29.545Z,99771.38
2023-03-31T09:55:00.597Z,99770.06
2023-03-31T09:57:34.418Z,99766.34
2023-03-31T10:00:19.189Z,99757.66
2023-03-31T10:02:56.785Z,99755.19
2023-03-31T10:05:26.833Z,99739.72
2023-03-31T10:08:16.955Z,99733.97
2023-03-31T10:10:51.867Z,99736.63
2023-03-31T10:13:35.600Z,99725.69
2023-03-31T10:16:08.521Z,99717.28
2023-03-31T10:18:37.968Z,99716.00
2023-03-31T10:21:08.287Z,99713.94
2023-03-31T10:23:36.279Z,99716.38
2023-03-31T10:26:04.739Z,99705.88
2023-03-31T10:28:35.424Z,99694.03
2023-03-31T10:31:03.500Z,99684.53
2023-03-31T10:33:34.992Z,99688.59
2023-03-31T10:36:29.378Z,99678.25
2023-03-31T10:38:56.969Z,99676.06
2023-03-31T10:41:29.751Z,99659.75
2023-03-31T10:43:58.628Z,99647.91
2023-03-31T10:46:49.255Z,99652.53
2023-03-31T10:49:25.683Z,99660.28
2023-03-31T10:51:54.460Z,99651.09
2023-03-31T10:54:21.525Z,99646.06
2023-03-31T10:56:59.436Z,99633.66
2023-03-31T10:59:38.448Z,99625.25
2023-03-31T11:02:27.297Z,99622.25
2023-03-31T11:05:02.019Z,99624.03
2023-03-31T11:07:50.731Z,99612.38
2023-03-31T11:10:42.018Z,99619.09
2023-03-31T11:13:11.520Z,99624.31
2023-03-31T11:15:38.425Z,99613.84
2023-03-31T11:18:33.260Z,99606.75
2023-03-31T11:21:15.156Z,99594.72
2023-03-31T11:23:44.329Z,99594.50
2023-03-31T11:26:17.852Z,99585.06
2023-03-31T11:29:33.565Z,99586.41
2023-03-31T11:32:38.184Z,99581.88
2023-03-31T11:35:28.484Z,99560.34
2023-03-31T11:38:11.690Z,99569.81
2023-03-31T11:40:47.672Z,99560.13
2023-03-31T11:43:21.586Z,99552.41
2023-03-31T11:45:57.282Z,99545.34
2023-03-31T11:48:36.426Z,99544.06
2023-03-31T11:51:06.998Z,99528.53
2023-03-31T11:53:37.624Z,99522.69
2023-03-31T11:56:07.617Z,99518.47
2023-03-31T11:58:56.326Z,99517.84
2023-03-31T12:01:29.317Z,99519.94
2023-03-31T12:04:11.086Z,99515.34
2023-03-31T12:06:41.883Z,99537.13
2023-03-31T12:09:27.585Z,99525.38
2023-03-31T12:12:06.257Z,99522.34
2023-03-31T12:15:12.960Z,99516.25
2023-03-31T12:17:43.709Z,99512.69
2023-03-31T12:20:25.407Z,99511.84
2023-03-31T12:22:54.158Z,99492.91
2023-03-31T12:25:23.239Z,99504.84
2023-03-31T12:27:51.603Z,99489.75
2023-03-31T12:30:21.549Z,99489.22
2023-03-31T12:32:55.455Z,99470.28
2023-03-31T12:35:27.442Z,99486.13
2023-03-31T12:38:11.723Z,99481.88
2023-03-31T12:40:44.377Z,99473.03
2023-03-31T12:43:32.726Z,99474.44
2023-03-31T12:46:12.995Z,99477.28
2023-03-31T12:49:01.243Z,99479.22
2023-03-31T12:51:27.916Z,99478.09
2023-03-31T12:54:05.812Z,99472.38
2023-03-31T12:57:00.824Z,99485.19
2023-03-31T12:59:42.332Z,99496.44
2023-03-31T13:02:16.336Z,99495.78
2023-03-31T13:04:44.244Z,99482.94
2023-03-31T13:07:28.285Z,99496.97
2023-03-31T13:10:19.953Z,99496.22
2023-03-31T13:13:07.128Z,99484.59
2023-03-31T13:15:34.027Z,99493.22
2023-03-31T13:18:06.901Z,99492.63
2023-03-31T13:20:40.526Z,99475.78
2023-03-31T13:23:24.263Z,99476.44
2023-03-31T13:25:56.134Z,99478.38
2023-03-31T13:28:22.878Z,99481.00
2023-03-31T13:31:02.184Z,99455.16
2023-03-31T13:33:35.230Z,99468.78
2023-03-31T13:36:23.481Z,99463.66
2023-03-31T13:39:32.142Z,99452.69
2023-03-31T13:42:17.443Z,99445.00
2023-03-31T13:45:09.014Z,99430.34
2023-03-31T13:47:44.857Z,99429.16
2023-03-31T13:50:33.231Z,99421.22
2023-03-31T13:53:35.654Z,99422.91
2023-03-31T13:56:07.752Z,99409.50
2023-03-31T13:58:48.607Z,99406.69
2023-03-31T14:01:39.385Z,99401.19
2023-03-31T14:04:22.545Z,99385.50
2023-03-31T14:06:55.955Z,99401.59
2023-03-31T14:09:29.585Z,99406.59
2023-03-31T14:12:01.592Z,99389.16
2023-03-31T14:14:29.898Z,99392.88
2023-03-31T14:17:02.860Z,99399.97
2023-03-31T14:20:08.479Z,99396.44
2023-03-31T14:23:03.909Z,99401.25
2023-03-31T14:25:33.702Z,99404.41
2023-03-31T14:28:28.566Z,99409.44
2023-03-31T14:31:13.890Z,99409.88
2023-03-31T14:34:19.489Z,99397.56
2023-03-31T14:36:49.458Z,99380.31
2023-03-31T14:39:21.795Z,99373.75
2023-03-31T14:41:54.718Z,99367.59
2023-03-31T14:44:22.109Z,99371.50
2023-03-31T14:46:48.870Z,99369.84
2023-03-31T14:49:22.123Z,99366.38
2023-03-31T14:51:48.943Z,99362.06
2023-03-31T14:54:18.544Z,99362.31
2023-03-31T14:56:52.296Z,99356.63
2023-03-31T14:59:23.206Z,99352.53
2023-03-31T15:01:51.046Z,99363.00
2023-03-31T15:04:28.807Z,99346.56
2023-03-31T15:07:05.126Z,99361.56
2023-03-31T15:09:36.047Z,99361.56
2023-03-31T15:12:08.434Z,99357.06
2023-03-31T15:14:45.726Z,99347.59
2023-03-31T15:17:21.429Z,99340.66
2023-03-31T15:19:54.338Z,99336.34
2023-03-31T15:22:24.001Z,99314.16
2023-03-31T15:24:50.817Z,99323.81
2023-03-31T15:30:14.635Z,99319.97
2023-03-31T15:32:41.999Z,99312.56
2023-03-31T15:35:22.925Z,99304.78
2023-03-31T15:37:52.921Z,99305.84
2023-03-31T15:40:32.618Z,99313.25
2023-03-31T15:45:48.161Z,99305.91
2023-03-31T15:48:35.768Z,99307.13
2023-03-31T15:51:36.452Z,99310.03
2023-03-31T15:54:03.840Z,99309.00
2023-03-31T15:56:40.929Z,99317.25
2023-03-31T15:59:34.356Z,99296.47
2023-03-31T16:02:05.882Z,99296.91
2023-03-31T16:04:33.515Z,99298.16
2023-03-31T16:07:22.476Z,99300.41
2023-03-31T16:10:05.131Z,99300.59
2023-03-31T16:12:40.855Z,99312.72
2023-03-31T16:15:14.212Z,99308.41
2023-03-31T16:17:48.589Z,99298.38
2023-03-31T16:20:28.578Z,99290.78
2023-03-31T16:23:01.453Z,99288.09
2023-03-31T16:25:31.812Z,99287.47
2023-03-31T16:28:01.004Z,99280.75
2023-03-31T16:30:36.565Z,99279.91
2023-03-31T16:33:12.188Z,99274.78
2023-03-31T16:35:41.999Z,99270.84
2023-03-31T16:38:11.123Z,99254.84
2023-03-31T16:40:40.614Z,99266.56
2023-03-31T16:43:19.709Z,99261.66
2023-03-31T16:45:48.849Z,99256.31
2023-03-31T16:48:17.720Z,99260.44
2023-03-31T16:50:49.624Z,99266.19
2023-03-31T16:53:18.894Z,99260.44
2023-03-31T16:55:46.457Z,99255.53
2023-03-31T16:58:13.340Z,99273.00
2023-03-31T17:00:41.447Z,99255.53
2023-03-31T17:03:10.314Z,99252.28
2023-03-31T17:05:42.373Z,99249.19
2023-03-31T17:08:10.347Z,99263.75
2023-03-31T17:10:38.147Z,99254.94
2023-03-31T17:13:05.338Z,99248.59
2023-03-31T17:15:32.356Z,99257.19
2023-03-31T17:17:59.410Z,99260.94
2023-03-31T17:20:26.450Z,99257.44
2023-03-31T17:22:54.228Z,99264.44
2023-03-31T17:25:21.849Z,99261.97
2023-03-31T17:27:48.748Z,99257.44
2023-03-31T17:30:15.783Z,99273.88
2023-03-31T17:32:42.827Z,99273.47
2023-03-31T17:35:10.461Z,99269.38
2023-03-31T17:37:38.648Z,99265.06
2023-03-31T17:40:06.393Z,99263.84
2023-03-31T17:42:33.289Z,99283.13
2023-03-31T17:45:00.350Z,99281.72
2023-03-31T17:47:27.879Z,99290.34
2023-03-31T17:49:54.802Z,99295.88
2023-03-31T17:52:21.545Z,99283.78
2023-03-31T17:54:50.675Z,99301.63
2023-03-31T17:57:17.852Z,99315.19
2023-03-31T17:59:45.227Z,99322.38
2023-03-31T18:02:16.242Z,99324.44
2023-03-31T18:04:43.224Z,99325.22
2023-03-31T18:07:10.555Z,99330.78
2023-03-31T18:09:37.771Z,99350.06
2023-03-31T18:12:05.010Z,99354.75
2023-03-31T18:14:32.733Z,99359.09
2023-03-31T18:16:59.531Z,99370.16
2023-03-31T18:19:26.342Z,99375.47
2023-03-31T18:21:53.099Z,99371.75
2023-03-31T18:24:20.719Z,99390.22
2023-03-31T18:26:47.546Z,99398.16
2023-03-31T18:29:14.521Z,99392.59
2023-03-31T18:31:41.801Z,99402.78
2023-03-31T18:34:09.097Z,99401.75
2023-03-31T18:36:36.017Z,99412.56
2023-03-31T18:39:04.149Z,99420.94
2023-03-31T18:41:30.938Z,99413.00
2023-03-31T18:43:57.713Z,99407.50
2023-03-31T18:46:24.592Z,99419.03
2023-03-31T18:48:51.439Z,99429.03
2023-03-31T18:51:18.435Z,99425.94
2023-03-31T18:53:45.105Z,99418.72
2023-03-31T18:56:12.119Z,99432.22
2023-03-31T18:58:38.830Z,99442.06
2023-03-31T19:01:05.838Z,99433.41
2023-03-31T19:03:32.841Z,99443.03
2023-03-31T19:06:05.397Z,99433.97
2023-03-31T19:08:32.775Z,99443.75
2023-03-31T19:11:21.308Z,99445.22
2023-03-31T19:13:48.193Z,99452.41
2023-03-31T19:16:15.244Z,99457.25
2023-03-31T19:18:43.649Z,99466.63
2023-03-31T19:21:11.031Z,99471.34
2023-03-31T19:23:37.826Z,99474.25
2023-03-31T19:26:05.137Z,99459.97
2023-03-31T19:28:32.136Z,99468.44
2023-03-31T19:30:59.461Z,99464.31
2023-03-31T19:33:26.996Z,99450.97
2023-03-31T19:35:53.980Z,99457.13
2023-03-31T19:38:25.584Z,99457.94
2023-03-31T19:40:52.991Z,99457.50
2023-03-31T19:43:25.110Z,99456.47
2023-03-31T19:45:53.633Z,99458.19
2023-03-31T19:48:21.392Z,99461.47
2023-03-31T19:50:56.030Z,99458.19
2023-03-31T19:53:23.890Z,99460.84
2023-03-31T19:55:56.880Z,99456.34
2023-03-31T19:58:24.309Z,99452.03
2023-03-31T20:00:52.835Z,99448.38
2023-03-31T20:03:20.370Z,99450.41
2023-03-31T20:05:48.138Z,99461.06
2023-03-31T20:08:15.811Z,99449.53
2023-03-31T20:10:42.945Z,99459.78
2023-03-31T20:13:10.591Z,99452.53
2023-03-31T20:15:38.963Z,99459.13
2023-03-31T20:18:07.160Z,99451.34
2023-03-31T20:20:34.173Z,99461.78
2023-03-31T20:23:01.079Z,99446.59
2023-03-31T20:25:27.887Z,99450.34
2023-03-31T20:27:54.784Z,99453.19
2023-03-31T20:30:21.668Z,99448.25
2023-03-31T20:32:48.505Z,99450.34
2023-03-31T20:35:15.338Z,99450.72
2023-03-31T20:37:42.046Z,99429.25
2023-03-31T20:40:09.421Z,99414.69
2023-03-31T20:42:36.443Z,99410.00
2023-03-31T20:45:03.768Z,99393.34
2023-03-31T20:47:30.656Z,99387.84
2023-03-31T20:49:57.482Z,99379.84
2023-03-31T20:52:24.295Z,99365.75
2023-03-31T20:54:51.251Z,99348.47
2023-03-31T20:57:18.137Z,99358.47
2023-03-31T20:59:45.462Z,99352.69
2023-03-31T21:02:14.189Z,99342.00
2023-03-31T21:04:41.245Z,99343.00
2023-03-31T21:07:07.950Z,99341.00
2023-03-31T21:09:34.943Z,99316.25
2023-03-31T21:12:02.772Z,99302.91
2023-03-31T21:14:30.125Z,99304.25
2023-03-31T21:16:57.187Z,99313.66
2023-03-31T21:19:24.046Z,99330.06
2023-03-31T21:21:50.803Z,99320.88
2023-03-31T21:24:17.538Z,99319.41
2023-03-31T21:26:44.367Z,99306.72
2023-03-31T21:29:11.255Z,99303.97
2023-03-31T21:31:38.306Z,99299.97
2023-03-31T21:34:05.366Z,99304.16
2023-03-31T21:36:32.214Z,99300.13
2023-03-31T21:38:58.981Z,99301.31
2023-03-31T21:41:29.997Z,99286.56
2023-03-31T21:44:00.554Z,99275.31
2023-03-31T21:46:32.700Z,99272.75
2023-03-31T21:48:59.846Z,99272.75
2023-03-31T21:51:28.634Z,99289.50
2023-03-31T21:53:55.877Z,99290.69
2023-03-31T21:56:28.275Z,99285.97
2023-03-31T21:58:59.017Z,99287.16
2023-03-31T22:01:25.767Z,99295.75
2023-03-31T22:03:52.861Z,99296.13
2023-03-31T22:06:19.950Z,99300.44
2023-03-31T22:08:46.698Z,99299.63
2023-03-31T22:11:13.852Z,99282.59
2023-03-31T22:13:41.372Z,99288.06
2023-03-31T22:16:26.927Z,99279.69
2023-03-31T22:18:54.470Z,99282.53
2023-03-31T22:21:24.016Z,99280.41
2023-03-31T22:23:52.980Z,99288.84
2023-03-31T22:26:20.621Z,99280.41
2023-03-31T22:28:47.921Z,99297.81
2023-03-31T22:31:14.741Z,99298.19
2023-03-31T22:33:41.526Z,99309.00
2023-03-31T22:36:08.556Z,99316.16
2023-03-31T22:38:35.729Z,99310.00
2023-03-31T22:41:02.756Z,99307.53
2023-03-31T22:43:29.586Z,99299.47
2023-03-31T22:45:56.370Z,99311.47
2023-03-31T22:48:23.191Z,99316.31
2023-03-31T22:50:49.988Z,99304.69
2023-03-31T22:53:16.839Z,99302.22
2023-03-31T22:55:53.942Z,99294.16
2023-03-31T22:58:21.616Z,99295.25
2023-03-31T23:00:57.269Z,99295.19
2023-03-31T23:03:24.674Z,99281.47
2023-03-31T23:05:51.398Z,99287.94
2023-03-31T23:08:18.486Z,99278.63
2023-03-31T23:10:57.968Z,99276.81
2023-03-31T23:13:26.107Z,99277.06
2023-03-31T23:15:53.050Z,99274.25
2023-03-31T23:18:20.010Z,99264.34
2023-03-31T23:20:46.991Z,99271.94
2023-03-31T23:23:13.849Z,99257.56
2023-03-31T23:25:40.715Z,99263.97
2023-03-31T23:28:07.463Z,99254.38
2023-03-31T23:30:34.208Z,99245.50
2023-03-31T23:33:01.118Z,99248.63
2023-03-31T23:35:27.857Z,99252.06
2023-03-31T23:37:54.651Z,99260.69
2023-03-31T23:40:21.692Z,99244.69
2023-03-31T23:42:48.739Z,99250.88
2023-03-31T23:45:15.675Z,99243.13
2023-03-31T23:47:42.675Z,99244.06
2023-03-31T23:50:10.193Z,99246.16
2023-03-31T23:52:36.996Z,99233.06
2023-03-31T23:55:04.815Z,99219.91
2023-03-31T23:57:31.622Z,99234.06
2023-03-31T23:59:58.468Z,99236.09
